Time;durP1;ratioP1;P1;durP2;ratioP2;P2;SDS_P1;SDS_P2;PMS_P1;PMS_P2;Temp;Humidity;BMP_temperature;BMP_pressure;BME280_temperature;BME280_humidity;BME280_pressure;Samples;Min_cycle;Max_cycle;Signal;HPM_P1;HPM_P2
2023/08/04 00:01:22;;;;;;;6.28;3.50;;;21.80;99.90;;;;;;5032349;28;20036;-77
2023/08/04 00:03:48;;;;;;;7.43;3.75;;;21.60;99.90;;;;;;5032647;28;20538;-77
2023/08/04 00:06:13;;;;;;;6.28;3.13;;;21.60;99.90;;;;;;5039207;28;20459;-78
2023/08/04 00:08:39;;;;;;;8.18;3.30;;;21.60;99.90;;;;;;5034547;28;20529;-78
2023/08/04 00:11:04;;;;;;;6.13;3.22;;;21.60;99.90;;;;;;5035647;28;20029;-77
2023/08/04 00:13:31;;;;;;;5.32;3.17;;;21.50;99.90;;;;;;5039730;28;20395;-78
2023/08/04 00:16:07;;;;;;;5.75;2.72;;;21.50;99.90;;;;;;5041252;28;20028;-77
2023/08/04 00:18:33;;;;;;;9.05;3.53;;;21.40;99.90;;;;;;5040849;28;20033;-78
2023/08/04 00:20:59;;;;;;;8.25;3.50;;;21.30;99.90;;;;;;5036878;28;20025;-78
2023/08/04 00:23:25;;;;;;;8.15;3.53;;;21.10;99.90;;;;;;5032878;28;20033;-78
2023/08/04 00:25:50;;;;;;;11.10;3.92;;;21.00;99.90;;;;;;5034081;28;20111;-77
2023/08/04 00:28:16;;;;;;;10.68;3.72;;;20.90;99.90;;;;;;5036084;28;20037;-77
2023/08/04 00:30:42;;;;;;;6.28;3.42;;;20.80;99.90;;;;;;5035563;28;20127;-77
2023/08/04 00:33:08;;;;;;;7.07;3.70;;;20.80;99.90;;;;;;5037116;28;20135;-77
2023/08/04 00:35:33;;;;;;;11.57;3.40;;;20.90;99.90;;;;;;5031393;28;20044;-78
2023/08/04 00:37:59;;;;;;;16.05;3.83;;;20.80;99.90;;;;;;5031376;28;20033;-78
2023/08/04 00:40:25;;;;;;;7.03;3.65;;;20.90;99.90;;;;;;5032779;28;20025;-78
2023/08/04 00:42:51;;;;;;;6.25;3.35;;;20.90;99.90;;;;;;5040287;28;20048;-78
2023/08/04 00:45:16;;;;;;;8.13;3.38;;;20.80;99.90;;;;;;5039104;28;20041;-77
2023/08/04 00:47:42;;;;;;;10.45;3.42;;;20.80;99.90;;;;;;5041582;28;20086;-77
2023/08/04 00:50:09;;;;;;;6.28;3.22;;;20.80;99.90;;;;;;5035810;28;20033;-78
2023/08/04 00:52:37;;;;;;;6.13;3.13;;;20.50;99.90;;;;;;5030365;28;20030;-78
2023/08/04 00:55:05;;;;;;;6.70;3.28;;;20.60;99.90;;;;;;5035445;28;20022;-78
2023/08/04 00:57:30;;;;;;;8.27;3.53;;;20.50;99.90;;;;;;5033851;28;20052;-78
2023/08/04 00:59:56;;;;;;;6.63;3.85;;;20.40;99.90;;;;;;5035247;28;20025;-78
2023/08/04 01:02:22;;;;;;;8.07;3.42;;;20.20;99.90;;;;;;5036204;28;20026;-78
2023/08/04 01:04:48;;;;;;;7.18;3.17;;;20.10;99.90;;;;;;5038890;28;20106;-77
2023/08/04 01:07:23;;;;;;;7.22;3.40;;;20.20;99.90;;;;;;5031567;28;20067;-77
2023/08/04 01:10:18;;;;;;;7.85;4.30;;;20.20;99.90;;;;;;5036838;28;20040;-77
2023/08/04 01:12:59;;;;;;;7.03;3.65;;;20.00;99.90;;;;;;5042308;28;20076;-77
2023/08/04 01:15:26;;;;;;;10.35;3.70;;;20.00;99.90;;;;;;5039168;28;20033;-77
2023/08/04 01:17:51;;;;;;;9.10;3.63;;;20.10;99.90;;;;;;5047219;28;20029;-77
2023/08/04 01:20:17;;;;;;;9.40;3.97;;;20.10;99.90;;;;;;5034052;28;20032;-78
2023/08/04 01:22:43;;;;;;;10.77;4.35;;;20.10;99.90;;;;;;5037741;28;20081;-76
2023/08/04 01:25:09;;;;;;;11.65;4.40;;;20.00;99.90;;;;;;5042427;28;20083;-77
2023/08/04 01:27:52;;;;;;;6.80;3.90;;;19.90;99.90;;;;;;5036749;28;20120;-78
2023/08/04 01:30:20;;;;;;;8.93;3.78;;;19.90;99.90;;;;;;5037063;28;20712;-77
2023/08/04 01:32:47;;;;;;;5.57;3.60;;;19.90;99.90;;;;;;5037390;28;20502;-77
2023/08/04 01:35:13;;;;;;;6.93;3.95;;;19.70;99.90;;;;;;5036385;28;20021;-77
2023/08/04 01:37:39;;;;;;;11.00;3.90;;;19.70;99.90;;;;;;5035785;28;20953;-77
2023/08/04 01:40:05;;;;;;;7.55;3.67;;;19.80;99.90;;;;;;5033419;28;20025;-77
2023/08/04 01:42:31;;;;;;;7.50;3.58;;;20.00;99.90;;;;;;5036623;28;20029;-78
2023/08/04 01:44:57;;;;;;;9.40;4.35;;;20.00;99.90;;;;;;5039575;28;20601;-77
2023/08/04 01:47:22;;;;;;;8.55;4.28;;;19.90;99.90;;;;;;5044602;28;20059;-78
2023/08/04 01:49:48;;;;;;;7.80;3.38;;;19.70;99.90;;;;;;5040450;28;20025;-78
2023/08/04 01:52:14;;;;;;;13.00;3.95;;;19.60;99.90;;;;;;5039275;28;20100;-78
2023/08/04 01:54:40;;;;;;;10.88;4.65;;;19.90;99.90;;;;;;5037680;28;20030;-78
2023/08/04 01:57:06;;;;;;;5.68;3.42;;;19.90;99.90;;;;;;5034212;28;20469;-76
2023/08/04 01:59:32;;;;;;;6.32;3.70;;;19.80;99.90;;;;;;5038308;28;20037;-77
2023/08/04 02:01:57;;;;;;;12.95;4.10;;;19.70;99.90;;;;;;5037594;28;20040;-78
2023/08/04 02:04:23;;;;;;;8.63;4.03;;;19.70;99.90;;;;;;5036478;28;20483;-77
2023/08/04 02:06:49;;;;;;;11.13;3.92;;;19.60;99.90;;;;;;5038022;28;20029;-76
2023/08/04 02:09:15;;;;;;;7.75;3.70;;;19.60;99.90;;;;;;5041129;28;20386;-78
2023/08/04 02:11:41;;;;;;;5.93;3.75;;;19.70;99.90;;;;;;5043546;28;20028;-78
2023/08/04 02:14:07;;;;;;;9.18;3.65;;;19.70;99.90;;;;;;5039504;28;20036;-77
2023/08/04 02:16:33;;;;;;;12.15;3.78;;;19.60;99.90;;;;;;5036359;28;20034;-78
2023/08/04 02:19:03;;;;;;;6.80;3.38;;;19.50;99.90;;;;;;5036146;28;20021;-77
2023/08/04 02:21:29;;;;;;;8.73;3.65;;;19.50;99.90;;;;;;5035913;28;20036;-78
2023/08/04 02:23:55;;;;;;;13.65;4.60;;;19.50;99.90;;;;;;5033333;28;20033;-78
2023/08/04 02:26:21;;;;;;;9.60;3.50;;;19.50;99.90;;;;;;5036446;28;20100;-77
2023/08/04 02:28:49;;;;;;;6.47;4.03;;;19.50;99.90;;;;;;5039926;28;20079;-77
2023/08/04 02:31:18;;;;;;;10.93;3.92;;;19.30;99.90;;;;;;5031654;28;20032;-77
2023/08/04 02:33:44;;;;;;;8.85;3.50;;;19.30;99.90;;;;;;5031105;28;20037;-77
2023/08/04 02:36:11;;;;;;;9.48;3.55;;;19.40;99.90;;;;;;5038451;28;20446;-78
2023/08/04 02:38:37;;;;;;;8.05;3.70;;;19.30;99.90;;;;;;5038670;28;20025;-78
2023/08/04 02:41:03;;;;;;;10.80;4.38;;;19.10;99.90;;;;;;5036840;28;20038;-77
2023/08/04 02:43:29;;;;;;;7.45;3.45;;;18.90;99.90;;;;;;5036950;28;20808;-77
2023/08/04 02:45:55;;;;;;;7.18;4.05;;;19.10;99.90;;;;;;5033731;28;20037;-77
2023/08/04 02:48:21;;;;;;;5.90;3.30;;;19.10;99.90;;;;;;5039841;28;20083;-77
2023/08/04 02:50:47;;;;;;;6.30;3.25;;;19.30;99.90;;;;;;5043800;28;20027;-78
2023/08/04 02:53:13;;;;;;;7.80;4.28;;;19.30;99.90;;;;;;5042983;28;20033;-77
2023/08/04 02:55:39;;;;;;;6.78;3.90;;;19.10;99.90;;;;;;5034127;28;20028;-77
2023/08/04 02:58:05;;;;;;;9.50;4.57;;;19.10;99.90;;;;;;5036211;28;20450;-77
2023/08/04 03:00:31;;;;;;;6.70;3.85;;;18.90;99.90;;;;;;5034669;28;20108;-76
2023/08/04 03:02:57;;;;;;;11.50;4.28;;;18.80;99.90;;;;;;5042092;28;20104;-81
2023/08/04 03:05:23;;;;;;;9.45;3.45;;;18.80;99.90;;;;;;5034473;28;20671;-78
2023/08/04 03:07:48;;;;;;;9.70;4.82;;;18.60;99.90;;;;;;5034171;28;20041;-78
2023/08/04 03:10:14;;;;;;;7.97;4.18;;;18.70;99.90;;;;;;5031440;28;20030;-78
2023/08/04 03:12:40;;;;;;;6.15;3.38;;;18.80;99.90;;;;;;5032232;28;20090;-78
2023/08/04 03:15:06;;;;;;;13.38;4.18;;;19.00;99.90;;;;;;5031615;28;20044;-77
2023/08/04 03:17:31;;;;;;;11.02;4.03;;;19.00;99.90;;;;;;5031186;28;20498;-78
2023/08/04 03:19:57;;;;;;;7.30;3.30;;;18.90;99.90;;;;;;5027298;28;20029;-78
2023/08/04 03:22:23;;;;;;;6.13;4.05;;;18.90;99.90;;;;;;5026391;28;20452;-80
2023/08/04 03:24:48;;;;;;;11.15;3.58;;;18.80;99.90;;;;;;5034985;28;20045;-78
2023/08/04 03:27:14;;;;;;;6.65;3.08;;;18.90;99.90;;;;;;5028427;28;20064;-78
2023/08/04 03:29:39;;;;;;;9.00;3.72;;;18.80;99.90;;;;;;5036307;28;20470;-77
2023/08/04 03:32:05;;;;;;;6.82;3.03;;;18.80;99.90;;;;;;5027722;28;20522;-78
2023/08/04 03:34:31;;;;;;;6.55;3.47;;;18.80;99.90;;;;;;5033127;28;20049;-79
2023/08/04 03:36:57;;;;;;;8.75;3.90;;;18.60;99.90;;;;;;5027483;28;20045;-78
2023/08/04 03:39:22;;;;;;;6.53;3.17;;;18.80;99.90;;;;;;5027320;28;20072;-77
2023/08/04 03:41:48;;;;;;;8.35;3.35;;;18.80;99.90;;;;;;5029588;28;20021;-79
2023/08/04 03:44:14;;;;;;;9.43;3.25;;;18.80;99.90;;;;;;5030549;28;20037;-79
2023/08/04 03:46:39;;;;;;;5.93;3.25;;;18.80;99.90;;;;;;5029348;28;20034;-78
2023/08/04 03:49:05;;;;;;;8.32;3.58;;;18.80;99.90;;;;;;5028072;28;20411;-78
2023/08/04 03:51:30;;;;;;;5.88;3.03;;;18.70;99.90;;;;;;5032877;28;20032;-78
2023/08/04 03:53:56;;;;;;;7.47;3.58;;;18.70;99.90;;;;;;5029046;28;20510;-78
2023/08/04 03:56:22;;;;;;;9.75;4.00;;;18.80;99.90;;;;;;5034195;28;20605;-78
2023/08/04 03:58:47;;;;;;;8.55;3.88;;;19.10;99.90;;;;;;5025593;28;20107;-79
2023/08/04 04:01:13;;;;;;;8.55;3.72;;;19.20;99.90;;;;;;5032683;28;20037;-78
2023/08/04 04:03:39;;;;;;;7.80;4.20;;;19.10;99.90;;;;;;5029517;28;20037;-79
2023/08/04 04:06:04;;;;;;;7.68;3.58;;;19.10;99.90;;;;;;5031491;28;20044;-78
2023/08/04 04:08:30;;;;;;;6.95;3.35;;;19.10;99.90;;;;;;5025037;28;20041;-80
2023/08/04 04:10:56;;;;;;;6.60;3.50;;;19.10;99.90;;;;;;5028282;28;20037;-77
2023/08/04 04:13:23;;;;;;;7.82;4.05;;;19.10;99.90;;;;;;5031657;28;20059;-78
2023/08/04 04:15:48;;;;;;;6.50;3.10;;;19.10;99.90;;;;;;5032818;28;20033;-78
2023/08/04 04:18:15;;;;;;;6.68;3.58;;;19.00;99.90;;;;;;5032055;28;20032;-78
2023/08/04 04:20:40;;;;;;;7.55;4.13;;;19.00;99.90;;;;;;5025546;28;20120;-79
2023/08/04 04:23:06;;;;;;;8.88;3.60;;;19.00;99.90;;;;;;5032446;28;20187;-77
2023/08/04 04:25:32;;;;;;;5.35;3.05;;;19.00;99.90;;;;;;5031105;28;20021;-78
2023/08/04 04:27:58;;;;;;;9.52;3.63;;;19.00;99.90;;;;;;5026627;28;20025;-80
2023/08/04 04:30:23;;;;;;;6.45;3.25;;;19.10;99.90;;;;;;5032291;28;20021;-77
2023/08/04 04:32:49;;;;;;;11.38;3.67;;;19.00;99.90;;;;;;5026369;28;20022;-79
2023/08/04 04:35:15;;;;;;;6.82;2.90;;;18.90;99.90;;;;;;5034674;28;20029;-78
2023/08/04 04:37:40;;;;;;;7.63;3.40;;;18.90;99.90;;;;;;5030170;28;20095;-78
2023/08/04 04:40:07;;;;;;;7.90;3.45;;;18.70;99.90;;;;;;5028481;28;20029;-79
2023/08/04 04:42:33;;;;;;;8.35;3.42;;;18.80;99.90;;;;;;5025892;28;20052;-79
2023/08/04 04:45:00;;;;;;;9.40;3.78;;;18.80;99.90;;;;;;5027154;28;20064;-80
2023/08/04 04:47:25;;;;;;;10.52;4.43;;;18.90;99.90;;;;;;5035542;28;20386;-78
2023/08/04 04:49:51;;;;;;;7.60;3.50;;;19.10;99.90;;;;;;5030842;28;20030;-78
2023/08/04 04:52:30;;;;;;;6.90;3.30;;;19.10;99.90;;;;;;5027490;28;20037;-78
2023/08/04 04:54:56;;;;;;;8.85;3.88;;;19.20;99.90;;;;;;5028929;28;20033;-79
2023/08/04 04:57:21;;;;;;;10.90;4.38;;;19.20;99.90;;;;;;5028738;28;20044;-78
2023/08/04 04:59:47;;;;;;;7.95;3.00;;;19.20;99.90;;;;;;5030303;28;20124;-78
2023/08/04 05:02:13;;;;;;;7.80;3.45;;;19.20;99.90;;;;;;5033040;28;20028;-78
2023/08/04 05:04:38;;;;;;;7.63;3.35;;;19.30;99.90;;;;;;5030855;28;20036;-78
2023/08/04 05:07:04;;;;;;;11.57;3.63;;;19.40;99.90;;;;;;5028942;28;20680;-79
2023/08/04 05:09:30;;;;;;;9.60;3.42;;;19.30;99.90;;;;;;5029308;28;20025;-81
2023/08/04 05:11:56;;;;;;;6.53;3.45;;;19.20;99.90;;;;;;5031826;28;21207;-79
2023/08/04 05:14:22;;;;;;;6.32;3.28;;;19.20;99.90;;;;;;5028350;28;20021;-78
2023/08/04 05:16:47;;;;;;;5.15;2.67;;;19.20;99.90;;;;;;5028592;28;20049;-81
2023/08/04 05:19:13;;;;;;;6.57;3.22;;;19.10;99.90;;;;;;5027794;28;20037;-78
2023/08/04 05:21:38;;;;;;;6.82;3.10;;;19.10;99.90;;;;;;5030151;28;20041;-79
2023/08/04 05:24:04;;;;;;;7.03;3.20;;;19.20;99.90;;;;;;5031191;28;20576;-78
2023/08/04 05:26:30;;;;;;;6.78;3.70;;;19.20;99.90;;;;;;5028347;28;20030;-79
2023/08/04 05:28:55;;;;;;;6.40;3.33;;;19.30;99.90;;;;;;5031122;28;20048;-79
2023/08/04 05:31:21;;;;;;;6.82;3.22;;;19.50;99.90;;;;;;5032303;28;20025;-81
2023/08/04 05:33:47;;;;;;;4.80;2.85;;;19.70;99.90;;;;;;5025730;28;20509;-79
2023/08/04 05:36:12;;;;;;;5.47;2.92;;;19.70;99.90;;;;;;5030001;28;20132;-80
2023/08/04 05:38:38;;;;;;;7.55;3.22;;;19.80;99.90;;;;;;5028007;28;20497;-76
2023/08/04 05:41:05;;;;;;;6.95;3.50;;;19.90;99.90;;;;;;5027723;28;20040;-79
2023/08/04 05:43:31;;;;;;;8.77;3.30;;;20.00;99.90;;;;;;5025533;28;20175;-76
2023/08/04 05:46:02;;;;;;;10.00;3.00;;;20.10;99.90;;;;;;5025425;28;20177;-79
2023/08/04 05:48:32;;;;;;;5.05;3.20;;;20.20;99.90;;;;;;5027819;28;20030;-76
2023/08/04 05:50:58;;;;;;;7.97;3.67;;;20.40;99.90;;;;;;5026688;28;20045;-77
2023/08/04 05:53:24;;;;;;;7.63;3.90;;;20.40;99.90;;;;;;5031232;28;20029;-75
2023/08/04 05:55:50;;;;;;;8.98;3.33;;;20.50;99.90;;;;;;5027074;28;20103;-77
2023/08/04 05:58:16;;;;;;;7.50;2.97;;;20.60;99.90;;;;;;5029798;28;21724;-77
2023/08/04 06:00:42;;;;;;;5.57;2.63;;;20.70;99.90;;;;;;5033909;28;20075;-76
2023/08/04 06:03:08;;;;;;;5.72;2.85;;;20.80;99.90;;;;;;5032322;28;20088;-77
2023/08/04 06:05:33;;;;;;;4.90;2.97;;;20.80;99.90;;;;;;5035451;28;20109;-75
2023/08/04 06:07:59;;;;;;;5.03;2.80;;;20.90;99.90;;;;;;5030118;28;20040;-80
2023/08/04 06:10:25;;;;;;;5.53;2.50;;;20.80;99.90;;;;;;5033970;28;20044;-81
2023/08/04 06:12:51;;;;;;;11.45;3.15;;;20.80;99.90;;;;;;5045585;28;20376;-77
2023/08/04 06:15:17;;;;;;;7.07;2.83;;;20.90;99.90;;;;;;5034060;28;20041;-75
2023/08/04 06:17:44;;;;;;;6.57;2.65;;;21.00;99.90;;;;;;5034730;28;20049;-76
2023/08/04 06:20:10;;;;;;;4.85;2.30;;;21.10;99.90;;;;;;5037529;28;20070;-77
2023/08/04 06:22:36;;;;;;;6.90;2.50;;;21.00;99.90;;;;;;5036745;28;20368;-78
2023/08/04 06:25:03;;;;;;;7.05;2.58;;;20.90;99.90;;;;;;5033014;28;20028;-81
2023/08/04 06:27:29;;;;;;;8.98;2.45;;;21.10;99.90;;;;;;5026152;28;20116;-78
2023/08/04 06:29:55;;;;;;;4.22;2.22;;;21.10;99.90;;;;;;5032884;28;20163;-78
2023/08/04 06:32:20;;;;;;;4.80;2.38;;;21.00;99.90;;;;;;5030195;28;20067;-76
2023/08/04 06:34:46;;;;;;;17.55;2.53;;;20.80;99.90;;;;;;5032290;28;20643;-78
2023/08/04 06:37:11;;;;;;;4.43;2.22;;;20.70;99.90;;;;;;5028929;28;20053;-78
2023/08/04 06:39:37;;;;;;;7.80;2.42;;;20.80;99.90;;;;;;5027863;28;20026;-78
2023/08/04 06:42:04;;;;;;;5.68;2.65;;;20.90;99.90;;;;;;5031033;28;20116;-78
2023/08/04 06:44:30;;;;;;;9.38;2.72;;;21.00;99.90;;;;;;5026115;28;20402;-79
2023/08/04 06:46:56;;;;;;;4.63;2.40;;;21.10;99.90;;;;;;5027368;28;20040;-79
2023/08/04 06:49:21;;;;;;;3.83;2.33;;;21.30;99.90;;;;;;5028708;28;20030;-78
2023/08/04 06:51:49;;;;;;;6.35;2.65;;;21.40;99.90;;;;;;5026308;28;20033;-78
2023/08/04 06:54:16;;;;;;;6.70;2.63;;;21.50;99.90;;;;;;5030637;28;20020;-77
2023/08/04 06:56:41;;;;;;;5.72;2.70;;;21.40;99.90;;;;;;5030613;28;20128;-77
2023/08/04 06:59:07;;;;;;;6.00;2.83;;;21.40;99.90;;;;;;5032452;28;20550;-78
2023/08/04 07:01:33;;;;;;;6.78;3.00;;;21.50;99.90;;;;;;5033156;28;20035;-78
2023/08/04 07:03:58;;;;;;;5.15;2.60;;;21.50;99.90;;;;;;5031477;28;20857;-78
2023/08/04 07:06:24;;;;;;;4.63;2.08;;;21.50;99.90;;;;;;5030818;28;20037;-78
2023/08/04 07:08:50;;;;;;;6.30;2.42;;;21.70;99.90;;;;;;5025289;28;20079;-78
2023/08/04 07:11:17;;;;;;;5.20;2.40;;;21.90;99.90;;;;;;5034091;28;20426;-77
2023/08/04 07:13:43;;;;;;;4.07;2.05;;;22.00;99.90;;;;;;5027902;28;20422;-78
2023/08/04 07:16:10;;;;;;;5.20;2.15;;;21.80;99.90;;;;;;5030558;28;20562;-79
2023/08/04 07:18:36;;;;;;;4.60;2.15;;;21.70;99.90;;;;;;5029253;28;20028;-77
2023/08/04 07:21:10;;;;;;;6.18;2.53;;;21.60;99.90;;;;;;5029249;28;20083;-77
2023/08/04 07:23:36;;;;;;;5.00;2.50;;;21.40;99.90;;;;;;5031417;28;20029;-79
2023/08/04 07:26:03;;;;;;;7.60;2.50;;;21.40;99.90;;;;;;5025518;28;20029;-79
2023/08/04 07:28:29;;;;;;;4.07;1.90;;;21.60;99.90;;;;;;5031790;28;20368;-78
2023/08/04 07:30:55;;;;;;;7.80;2.58;;;21.50;99.90;;;;;;5024992;28;20040;-78
2023/08/04 07:33:22;;;;;;;5.15;2.45;;;21.60;99.90;;;;;;5028304;28;20029;-78
2023/08/04 07:35:58;;;;;;;4.47;2.30;;;21.70;99.90;;;;;;5025561;28;20505;-77
2023/08/04 07:38:24;;;;;;;5.88;2.40;;;21.80;99.90;;;;;;5024474;28;20132;-77
2023/08/04 07:40:50;;;;;;;4.53;2.03;;;21.90;99.90;;;;;;5031614;28;20434;-77
2023/08/04 07:43:17;;;;;;;6.50;2.22;;;22.00;99.90;;;;;;5027333;28;20032;-77
2023/08/04 07:45:43;;;;;;;6.47;2.45;;;21.90;99.90;;;;;;5028720;28;20041;-77
2023/08/04 07:48:08;;;;;;;5.25;2.72;;;22.10;99.90;;;;;;5029421;28;20470;-77
2023/08/04 07:50:39;;;;;;;7.43;3.47;;;22.10;99.90;;;;;;5030441;28;20132;-76
2023/08/04 07:53:04;;;;;;;7.97;2.35;;;22.00;99.90;;;;;;5027467;28;20029;-78
2023/08/04 07:55:34;;;;;;;6.32;2.95;;;22.00;99.90;;;;;;5033054;28;20039;-79
2023/08/04 07:58:00;;;;;;;8.15;2.60;;;22.10;99.90;;;;;;5027978;28;20045;-78
2023/08/04 08:00:26;;;;;;;5.07;2.17;;;22.20;99.90;;;;;;5026971;28;20026;-78
2023/08/04 08:02:51;;;;;;;5.07;2.70;;;22.30;99.90;;;;;;5034015;28;20091;-78
2023/08/04 08:05:17;;;;;;;4.90;2.28;;;22.60;99.90;;;;;;5034687;28;20034;-80
2023/08/04 08:07:43;;;;;;;5.65;2.28;;;22.30;99.90;;;;;;5028855;28;20191;-78
2023/08/04 08:10:09;;;;;;;5.25;2.13;;;22.40;99.90;;;;;;5027699;28;20061;-78
2023/08/04 08:12:34;;;;;;;8.73;3.15;;;22.40;99.90;;;;;;5034475;28;20029;-76
2023/08/04 08:15:00;;;;;;;5.35;2.60;;;22.50;99.90;;;;;;5029348;28;20067;-78
2023/08/04 08:17:25;;;;;;;5.13;2.25;;;22.70;99.90;;;;;;5030541;28;20080;-77
2023/08/04 08:19:51;;;;;;;5.20;2.08;;;22.60;99.90;;;;;;5026242;28;20029;-78
2023/08/04 08:22:17;;;;;;;5.38;2.35;;;22.70;99.90;;;;;;5032944;28;20025;-78
2023/08/04 08:24:43;;;;;;;3.75;1.80;;;22.80;99.90;;;;;;5028523;28;20479;-78
2023/08/04 08:27:08;;;;;;;6.38;2.05;;;22.40;99.90;;;;;;5030962;28;20032;-77
2023/08/04 08:29:35;;;;;;;9.13;2.15;;;22.40;99.90;;;;;;5033139;28;20029;-78
2023/08/04 08:32:01;;;;;;;4.22;2.00;;;22.60;99.90;;;;;;5026815;28;20382;-78
2023/08/04 08:34:27;;;;;;;7.97;1.90;;;22.60;99.90;;;;;;5027109;28;20050;-79
2023/08/04 08:36:52;;;;;;;4.72;2.03;;;22.70;99.90;;;;;;5030423;28;20049;-78
2023/08/04 08:39:18;;;;;;;4.70;2.10;;;22.90;99.90;;;;;;5030956;28;20174;-77
2023/08/04 08:41:44;;;;;;;4.00;1.85;;;23.00;99.90;;;;;;5029346;28;20379;-79
2023/08/04 08:44:10;;;;;;;3.60;2.08;;;22.70;99.90;;;;;;5029533;28;20080;-78
2023/08/04 08:46:35;;;;;;;4.80;1.52;;;22.70;99.90;;;;;;5035447;28;20651;-78
2023/08/04 08:49:03;;;;;;;3.28;1.48;;;22.70;99.90;;;;;;5030097;28;20060;-78
2023/08/04 08:51:30;;;;;;;3.80;1.63;;;22.60;99.90;;;;;;5028342;28;20032;-78
2023/08/04 08:53:58;;;;;;;4.03;1.85;;;22.60;99.90;;;;;;5043755;28;20037;-78
2023/08/04 08:56:25;;;;;;;2.83;1.58;;;22.60;99.90;;;;;;5047333;28;20491;-78
2023/08/04 08:58:51;;;;;;;5.55;1.80;;;22.50;99.90;;;;;;5046943;28;20025;-77
2023/08/04 09:01:17;;;;;;;4.97;2.38;;;22.80;99.90;;;;;;5046988;28;20021;-78
2023/08/04 09:03:44;;;;;;;4.03;1.80;;;22.90;99.90;;;;;;5045958;28;20029;-78
2023/08/04 09:06:09;;;;;;;4.43;2.00;;;23.00;99.90;;;;;;5027424;28;20029;-78
2023/08/04 09:08:35;;;;;;;3.67;1.48;;;23.10;99.90;;;;;;5035571;28;20029;-77
2023/08/04 09:11:02;;;;;;;4.43;1.50;;;23.10;99.90;;;;;;5047060;28;20033;-78
2023/08/04 09:13:28;;;;;;;4.20;1.73;;;23.00;99.90;;;;;;5046266;28;20525;-78
2023/08/04 09:15:56;;;;;;;4.60;1.80;;;22.80;99.90;;;;;;5047148;28;20072;-78
2023/08/04 09:18:30;;;;;;;4.07;1.85;;;22.70;99.90;;;;;;5047019;28;20036;-78
2023/08/04 09:21:00;;;;;;;5.43;2.10;;;22.80;99.90;;;;;;5047206;28;20036;-78
2023/08/04 09:23:28;;;;;;;5.43;1.98;;;22.70;99.90;;;;;;5047719;28;20021;-78
2023/08/04 09:25:54;;;;;;;4.30;2.00;;;22.60;99.90;;;;;;5038420;28;20021;-78
2023/08/04 09:28:20;;;;;;;3.50;1.40;;;22.60;99.90;;;;;;5036578;28;20021;-78
2023/08/04 09:31:01;;;;;;;5.88;2.25;;;22.60;99.90;;;;;;5038158;28;20067;-77
2023/08/04 09:33:27;;;;;;;3.10;1.23;;;22.40;99.90;;;;;;5037901;28;20025;-79
2023/08/04 09:36:03;;;;;;;4.82;1.83;;;22.40;99.90;;;;;;5037028;28;20099;-78
2023/08/04 09:38:29;;;;;;;4.80;2.15;;;22.40;99.90;;;;;;5040846;28;20033;-78
2023/08/04 09:41:08;;;;;;;3.97;1.85;;;22.30;99.90;;;;;;5042912;28;20036;-78
2023/08/04 09:43:34;;;;;;;5.95;1.95;;;22.30;99.90;;;;;;5048131;28;20099;-78
2023/08/04 09:46:08;;;;;;;3.38;1.40;;;22.50;99.90;;;;;;5039127;28;20091;-78
2023/08/04 09:48:34;;;;;;;5.68;1.90;;;22.50;99.90;;;;;;5039057;28;20029;-78
2023/08/04 09:51:26;;;;;;;4.03;2.08;;;22.60;99.90;;;;;;5032259;28;20040;-78
2023/08/04 09:53:56;;;;;;;5.55;1.65;;;22.40;99.90;;;;;;5037605;28;20399;-78
2023/08/04 09:56:28;;;;;;;4.85;1.73;;;22.10;99.90;;;;;;5033257;28;20041;-77
2023/08/04 09:58:54;;;;;;;5.32;1.75;;;21.90;99.90;;;;;;5031810;28;20061;-78
2023/08/04 10:01:20;;;;;;;3.10;1.70;;;22.20;99.90;;;;;;5033059;28;20060;-78
2023/08/04 10:03:57;;;;;;;4.20;1.80;;;22.40;99.90;;;;;;5032063;28;20026;-79
2023/08/04 10:06:23;;;;;;;4.53;1.90;;;22.50;99.90;;;;;;5035581;28;20021;-79
2023/08/04 10:08:50;;;;;;;6.53;1.98;;;22.40;99.90;;;;;;5036226;28;20029;-78
2023/08/04 10:11:16;;;;;;;4.97;1.60;;;22.40;99.90;;;;;;5030906;28;20026;-78
2023/08/04 10:13:44;;;;;;;4.47;2.10;;;22.40;99.90;;;;;;5036201;28;20034;-78
2023/08/04 10:16:13;;;;;;;3.97;1.50;;;22.60;99.90;;;;;;5035604;28;20533;-78
2023/08/04 10:18:50;;;;;;;4.15;2.00;;;22.80;99.90;;;;;;5031956;28;20022;-78
2023/08/04 10:21:36;;;;;;;3.92;1.63;;;23.10;99.90;;;;;;5032733;28;20025;-78
2023/08/04 10:24:04;;;;;;;3.38;1.58;;;23.20;99.90;;;;;;5028815;28;20125;-80
2023/08/04 10:26:48;;;;;;;4.82;1.42;;;23.70;99.90;;;;;;5035252;28;20040;-79
2023/08/04 10:29:14;;;;;;;4.60;1.58;;;24.00;99.90;;;;;;5032384;28;20049;-78
2023/08/04 10:31:51;;;;;;;5.13;1.73;;;24.10;99.90;;;;;;5033397;28;20554;-79
2023/08/04 10:34:17;;;;;;;7.03;1.70;;;24.00;99.90;;;;;;5031645;28;20030;-79
2023/08/04 10:37:06;;;;;;;4.82;1.92;;;23.90;99.90;;;;;;5030050;28;20114;-79
2023/08/04 10:39:40;;;;;;;5.25;1.70;;;23.80;99.90;;;;;;5037450;28;20025;-79
2023/08/04 10:42:16;;;;;;;;;;;24.00;99.90;;;;;;5034406;28;20375;-79
2023/08/04 10:44:52;;;;;;;6.03;1.88;;;24.10;99.90;;;;;;5038547;28;19916;-79
2023/08/04 10:47:43;;;;;;;7.30;2.20;;;24.00;99.90;;;;;;5034002;28;20083;-78
2023/08/04 10:50:09;;;;;;;4.72;1.70;;;24.00;99.90;;;;;;5034129;28;20033;-79
2023/08/04 10:52:37;;;;;;;3.80;1.60;;;23.90;99.90;;;;;;5035662;28;20033;-78
2023/08/04 10:55:04;;;;;;;4.15;2.03;;;23.80;99.90;;;;;;5031196;28;20083;-78
2023/08/04 10:57:34;;;;;;;4.55;2.03;;;23.90;99.90;;;;;;5035121;28;20733;-79
2023/08/04 11:00:00;;;;;;;3.22;1.40;;;24.10;99.90;;;;;;5032273;28;20057;-79
2023/08/04 11:02:27;;;;;;;3.65;1.40;;;24.30;99.90;;;;;;5032828;28;20112;-79
2023/08/04 11:04:53;;;;;;;4.80;1.35;;;24.50;99.90;;;;;;5033318;28;20049;-78
2023/08/04 11:07:20;;;;;;;5.20;1.23;;;25.00;99.90;;;;;;5033766;28;20044;-81
2023/08/04 11:09:47;;;;;;;3.22;1.33;;;25.00;99.90;;;;;;5032081;28;20475;-78
2023/08/04 11:12:14;;;;;;;3.55;1.73;;;25.00;99.80;;;;;;5031726;28;20022;-78
2023/08/04 11:14:40;;;;;;;3.88;1.40;;;24.90;99.70;;;;;;5029801;28;20071;-79
2023/08/04 11:17:16;;;;;;;3.53;1.73;;;24.80;99.90;;;;;;5033445;28;20030;-79
2023/08/04 11:19:43;;;;;;;2.95;1.70;;;24.70;99.90;;;;;;5029630;28;20053;-76
2023/08/04 11:22:14;;;;;;;4.50;1.58;;;24.80;99.90;;;;;;5036249;28;20072;-77
2023/08/04 11:24:40;;;;;;;3.15;1.30;;;24.90;99.80;;;;;;5033140;28;20025;-77
2023/08/04 11:27:07;;;;;;;4.50;1.63;;;25.00;99.90;;;;;;5034106;28;20499;-79
2023/08/04 11:29:32;;;;;;;3.78;1.60;;;25.20;99.90;;;;;;5032670;28;20100;-78
2023/08/04 11:31:58;;;;;;;3.72;1.17;;;25.10;99.80;;;;;;5030068;28;21006;-79
2023/08/04 11:34:24;;;;;;;4.50;1.52;;;25.20;99.70;;;;;;5031610;28;20090;-79
2023/08/04 11:36:50;;;;;;;5.15;1.80;;;25.30;99.90;;;;;;5034327;28;20454;-79
2023/08/04 11:39:15;;;;;;;4.70;1.50;;;25.20;99.90;;;;;;5033173;28;20688;-78
2023/08/04 11:41:44;;;;;;;2.92;1.45;;;25.40;99.90;;;;;;5027286;28;20072;-77
2023/08/04 11:44:10;;;;;;;6.43;1.88;;;25.50;99.90;;;;;;5031937;28;20037;-78
2023/08/04 11:46:38;;;;;;;3.35;1.17;;;25.50;99.40;;;;;;5034985;28;20122;-79
2023/08/04 11:49:07;;;;;;;3.05;1.42;;;25.30;99.40;;;;;;5032348;28;20029;-78
2023/08/04 11:51:33;;;;;;;3.83;1.58;;;25.20;99.60;;;;;;5033078;28;20037;-79
2023/08/04 11:53:58;;;;;;;7.88;2.03;;;25.40;99.90;;;;;;5031612;28;20079;-79
2023/08/04 11:56:24;;;;;;;1.58;0.82;;;25.50;99.90;;;;;;5028105;28;20069;-79
2023/08/04 11:58:55;;;;;;;5.63;1.45;;;25.40;98.50;;;;;;5031164;28;20043;-78
2023/08/04 12:01:30;;;;;;;4.10;1.58;;;25.40;99.00;;;;;;5034286;28;20042;-78
2023/08/04 12:03:56;;;;;;;6.32;1.63;;;25.40;99.60;;;;;;5037621;28;20037;-79
2023/08/04 12:06:23;;;;;;;2.65;1.30;;;25.40;99.90;;;;;;5034784;28;20491;-78
2023/08/04 12:09:02;;;;;;;3.53;1.40;;;25.30;99.90;;;;;;5029553;28;20433;-78
2023/08/04 12:11:28;;;;;;;3.33;0.90;;;25.30;99.80;;;;;;5030549;28;20029;-78
2023/08/04 12:14:10;;;;;;;5.03;1.35;;;25.20;99.40;;;;;;5039350;28;20025;-78
2023/08/04 12:16:51;;;;;;;2.55;1.13;;;25.20;99.90;;;;;;5032750;28;20581;-81
2023/08/04 12:19:17;;;;;;;5.32;1.52;;;25.20;98.70;;;;;;5029357;28;20199;-80
2023/08/04 12:21:43;;;;;;;4.13;1.48;;;25.20;98.00;;;;;;5031938;28;20037;-78
2023/08/04 12:24:08;;;;;;;3.38;1.30;;;25.20;98.30;;;;;;5027417;28;20028;-79
2023/08/04 12:26:34;;;;;;;7.65;1.95;;;25.40;99.30;;;;;;5028361;28;20270;-80
2023/08/04 12:29:00;;;;;;;7.53;1.85;;;25.60;99.90;;;;;;5030175;28;20394;-77
2023/08/04 12:31:25;;;;;;;3.30;1.42;;;25.70;99.60;;;;;;5029184;28;20021;-78
2023/08/04 12:33:51;;;;;;;4.22;1.60;;;25.80;99.50;;;;;;5023650;28;20120;-78
2023/08/04 12:36:16;;;;;;;4.90;1.65;;;25.90;99.40;;;;;;5029847;28;20118;-80
2023/08/04 12:38:42;;;;;;;4.22;1.88;;;25.90;98.80;;;;;;5029892;28;20041;-79
2023/08/04 12:41:09;;;;;;;4.43;1.80;;;26.10;98.70;;;;;;5027631;28;20037;-79
2023/08/04 12:43:35;;;;;;;4.70;2.00;;;26.30;98.60;;;;;;5029893;28;20052;-79
2023/08/04 12:46:00;;;;;;;3.53;1.92;;;26.50;98.40;;;;;;5026440;28;20049;-77